Shin Puropan Maru — JG5508 — position and weather

sailwx.info

Track history (hours):
 
Tides and Currents Weather Stations Pressure Air Temp Water Temp Dewpoint Dewpoint Depression Visibility Wind Speed Wind Dir Waves Ship Positions

Shin Puropan Maru

Last reported at 2017-Feb-23 13:23 UTC. Time now 2017-Feb-23 13:55 UTC.
Position N 35°34' E 139°55'.

Length 66 m; draft 4.4 m.

Type: Ship (hazmat cat A). MMSI: 431100348.

Date/timePositionNaut miles runAvg speedWind from/ knotsBaromVisibWave heightAir tempDewpointWater temp
2017-Feb-23 13:23N 35°34' E 139°55'0 0.0
2017-Feb-23 11:23N 35°34' E 139°55'0 0.0
2017-Feb-23 10:26N 35°34' E 139°55'0 0.1
2017-Feb-23 09:33N 35°34' E 139°55'0 0.0
2017-Feb-23 07:33N 35°34' E 139°55'0 0.0
2017-Feb-23 06:08N 35°34' E 139°55'0 0.0
2017-Feb-23 05:33N 35°34' E 139°55'0 0.0
2017-Feb-23 04:33N 35°34' E 139°55'0 0.0
2017-Feb-23 02:14N 35°34' E 139°55'0 0.0
2017-Feb-23 01:33N 35°34' E 139°55'0 0.0
2017-Feb-22 22:31N 35°34' E 139°55'0 0.0
2017-Feb-22 21:31N 35°34' E 139°55'0 0.0
2017-Feb-22 20:33N 35°34' E 139°55'0 0.0
2017-Feb-22 19:33N 35°34' E 139°55'0 0.0
2017-Feb-22 18:32N 35°34' E 139°55'0 0.0
2017-Feb-22 16:23N 35°34' E 139°55'0 0.0
2017-Feb-22 15:20N 35°34' E 139°55'0 0.0
2017-Feb-22 14:23N 35°34' E 139°55'2 2.0
2017-Feb-22 13:33N 35°33' E 139°57'4 0.4
2017-Feb-22 02:22N 35°32' E 140°01'6 7.7
2017-Feb-22 01:33N 35°35' E 139°55'0 0.0
2017-Feb-20 10:16N 35°35' E 139°55'0 0.1
2017-Feb-20 09:31N 35°35' E 139°55'0 0.0
2017-Feb-20 07:16N 35°35' E 139°55'0 0.0
2017-Feb-20 06:23N 35°35' E 139°55'0 0.0
2017-Feb-20 04:21N 35°35' E 139°55'0 0.0
2017-Feb-20 03:25N 35°35' E 139°55'0 0.0
2017-Feb-20 02:17N 35°35' E 139°55'0 0.0
2017-Feb-20 01:22N 35°35' E 139°55'0 0.0
2017-Feb-20 00:32N 35°35' E 139°55'0 0.1
2017-Feb-19 23:33N 35°35' E 139°55'0 0.0
2017-Feb-19 21:18N 35°35' E 139°55'0 0.0
2017-Feb-19 20:33N 35°35' E 139°55'0 0.0
2017-Feb-19 19:16N 35°35' E 139°55'0 0.0
2017-Feb-19 18:28N 35°35' E 139°55'0 0.0
2017-Feb-19 13:04N 35°35' E 139°55'5 9.9
2017-Feb-19 12:33N 35°31' E 139°52'1212.2
2017-Feb-19 11:33N 35°20' E 139°45'1211.9
2017-Feb-19 10:33N 35°08' E 139°46'24310.0
2017-Feb-18 10:20N 34°09' E 134°59'1612.4
2017-Feb-18 09:05N 34°24' E 135°05'712.9
2017-Feb-18 08:32N 34°28' E 135°12'1212.1
2017-Feb-18 07:33N 34°33' E 135°25'1 0.3
2017-Feb-18 04:17N 34°32' E 135°25'3 3.7
2017-Feb-18 03:31N 34°35' E 135°23'1 0.8
2017-Feb-18 02:33N 34°35' E 135°23'3 0.6
2017-Feb-17 22:33N 34°34' E 135°26'3 2.9
2017-Feb-17 21:33N 34°36' E 135°23'1010.3
2017-Feb-17 20:33N 34°29' E 135°13'5 4.4
2017-Feb-17 19:19N 34°25' E 135°09'0 0.6
2017-Feb-17 18:33N 34°25' E 135°09'1410.4
2017-Feb-17 17:15N 34°14' E 134°60'811.2
2017-Feb-17 16:33N 34°06' E 135°00'239 8.2
2017-Feb-16 11:22N 35°07' E 139°41'1010.9
2017-Feb-16 10:26N 35°16' E 139°46'910.5
2017-Feb-16 09:33N 35°25' E 139°44'1111.4
2017-Feb-16 08:33N 35°31' E 139°56'1 0.0
2017-Feb-15 13:33N 35°31' E 139°57'1212.0
2017-Feb-15 12:33N 35°23' E 139°46'1111.1
2017-Feb-15 11:33N 35°12' E 139°47'24510.2
2017-Feb-14 11:32N 34°08' E 134°59'2311.6
2017-Feb-14 09:33N 34°29' E 135°12'1212.3
2017-Feb-14 08:33N 34°36' E 135°24'2 0.6
2017-Feb-14 05:16N 34°34' E 135°26'3 4.1
2017-Feb-14 04:33N 34°36' E 135°23'0 0.3
2017-Feb-14 03:22N 34°36' E 135°23'3 4.2
2017-Feb-14 02:33N 34°34' E 135°20'1312.4
2017-Feb-14 01:31N 34°25' E 135°08'1312.5
2017-Feb-14 00:30N 34°15' E 134°59'  
Track history (hours):
 
Tides and Currents Weather Stations Pressure Air Temp Water Temp Dewpoint Dewpoint Depression Visibility Wind Speed Wind Dir Waves Ship Positions

Shin Puropan Maru

Last reported at 2017-Feb-23 13:23 UTC. Time now 2017-Feb-23 13:55 UTC.
Position N 35°34' E 139°55'.

Length 66 m; draft 4.4 m.

Type: Ship (hazmat cat A). MMSI: 431100348.

Date/timePositionNaut miles runAvg speedWind from/ knotsBaromVisibWave heightAir tempDewpointWater temp
2017-Feb-23 13:23N 35°34' E 139°55'0 0.0
2017-Feb-23 11:23N 35°34' E 139°55'0 0.0
2017-Feb-23 10:26N 35°34' E 139°55'0 0.1
2017-Feb-23 09:33N 35°34' E 139°55'0 0.0
2017-Feb-23 07:33N 35°34' E 139°55'0 0.0
2017-Feb-23 06:08N 35°34' E 139°55'0 0.0
2017-Feb-23 05:33N 35°34' E 139°55'0 0.0
2017-Feb-23 04:33N 35°34' E 139°55'0 0.0
2017-Feb-23 02:14N 35°34' E 139°55'0 0.0
2017-Feb-23 01:33N 35°34' E 139°55'0 0.0
2017-Feb-22 22:31N 35°34' E 139°55'0 0.0
2017-Feb-22 21:31N 35°34' E 139°55'0 0.0
2017-Feb-22 20:33N 35°34' E 139°55'0 0.0
2017-Feb-22 19:33N 35°34' E 139°55'0 0.0
2017-Feb-22 18:32N 35°34' E 139°55'0 0.0
2017-Feb-22 16:23N 35°34' E 139°55'0 0.0
2017-Feb-22 15:20N 35°34' E 139°55'0 0.0
2017-Feb-22 14:23N 35°34' E 139°55'2 2.0
2017-Feb-22 13:33N 35°33' E 139°57'4 0.4
2017-Feb-22 02:22N 35°32' E 140°01'6 7.7
2017-Feb-22 01:33N 35°35' E 139°55'0 0.0
2017-Feb-20 10:16N 35°35' E 139°55'0 0.1
2017-Feb-20 09:31N 35°35' E 139°55'0 0.0
2017-Feb-20 07:16N 35°35' E 139°55'0 0.0
2017-Feb-20 06:23N 35°35' E 139°55'0 0.0
2017-Feb-20 04:21N 35°35' E 139°55'0 0.0
2017-Feb-20 03:25N 35°35' E 139°55'0 0.0
2017-Feb-20 02:17N 35°35' E 139°55'0 0.0
2017-Feb-20 01:22N 35°35' E 139°55'0 0.0
2017-Feb-20 00:32N 35°35' E 139°55'0 0.1
2017-Feb-19 23:33N 35°35' E 139°55'0 0.0
2017-Feb-19 21:18N 35°35' E 139°55'0 0.0
2017-Feb-19 20:33N 35°35' E 139°55'0 0.0
2017-Feb-19 19:16N 35°35' E 139°55'0 0.0
2017-Feb-19 18:28N 35°35' E 139°55'0 0.0
2017-Feb-19 13:04N 35°35' E 139°55'5 9.9
2017-Feb-19 12:33N 35°31' E 139°52'1212.2
2017-Feb-19 11:33N 35°20' E 139°45'1211.9
2017-Feb-19 10:33N 35°08' E 139°46'24310.0
2017-Feb-18 10:20N 34°09' E 134°59'1612.4
2017-Feb-18 09:05N 34°24' E 135°05'712.9
2017-Feb-18 08:32N 34°28' E 135°12'1212.1
2017-Feb-18 07:33N 34°33' E 135°25'1 0.3
2017-Feb-18 04:17N 34°32' E 135°25'3 3.7
2017-Feb-18 03:31N 34°35' E 135°23'1 0.8
2017-Feb-18 02:33N 34°35' E 135°23'3 0.6
2017-Feb-17 22:33N 34°34' E 135°26'3 2.9
2017-Feb-17 21:33N 34°36' E 135°23'1010.3
2017-Feb-17 20:33N 34°29' E 135°13'5 4.4
2017-Feb-17 19:19N 34°25' E 135°09'0 0.6
2017-Feb-17 18:33N 34°25' E 135°09'1410.4
2017-Feb-17 17:15N 34°14' E 134°60'811.2
2017-Feb-17 16:33N 34°06' E 135°00'239 8.2
2017-Feb-16 11:22N 35°07' E 139°41'1010.9
2017-Feb-16 10:26N 35°16' E 139°46'910.5
2017-Feb-16 09:33N 35°25' E 139°44'1111.4
2017-Feb-16 08:33N 35°31' E 139°56'1 0.0
2017-Feb-15 13:33N 35°31' E 139°57'1212.0
2017-Feb-15 12:33N 35°23' E 139°46'1111.1
2017-Feb-15 11:33N 35°12' E 139°47'24510.2
2017-Feb-14 11:32N 34°08' E 134°59'2311.6
2017-Feb-14 09:33N 34°29' E 135°12'1212.3
2017-Feb-14 08:33N 34°36' E 135°24'2 0.6
2017-Feb-14 05:16N 34°34' E 135°26'3 4.1
2017-Feb-14 04:33N 34°36' E 135°23'0 0.3
2017-Feb-14 03:22N 34°36' E 135°23'3 4.2
2017-Feb-14 02:33N 34°34' E 135°20'1312.4
2017-Feb-14 01:31N 34°25' E 135°08'1312.5
2017-Feb-14 00:30N 34°15' E 134°59'  

Dump ship's entire track history